createdAt,value
2017-04-30T00:00:01.983Z,62.27
2017-04-30T00:01:12.017Z,62.37
2017-04-30T00:02:22.363Z,62.37
2017-04-30T00:03:32.391Z,62.37
2017-04-30T00:04:42.742Z,62.37
2017-04-30T00:05:53.117Z,61.99
2017-04-30T00:07:03.150Z,61.99
2017-04-30T00:08:13.202Z,62.37
2017-04-30T00:09:23.559Z,62.27
2017-04-30T00:10:33.588Z,62.08
2017-04-30T00:11:43.938Z,62.27
2017-04-30T00:12:54.306Z,62.18
2017-04-30T00:14:04.676Z,62.37
2017-04-30T00:15:14.713Z,62.37
2017-04-30T00:16:25.060Z,62.46
2017-04-30T00:17:35.392Z,62.46
2017-04-30T00:18:45.435Z,61.99
2017-04-30T00:19:55.801Z,61.96
2017-04-30T00:21:06.160Z,62.08
2017-04-30T00:22:16.517Z,61.86
2017-04-30T00:23:26.858Z,61.51
2017-04-30T00:24:37.198Z,61.7
2017-04-30T00:25:47.555Z,61.67
2017-04-30T00:26:57.894Z,61.58
2017-04-30T00:28:08.278Z,61.77
2017-04-30T00:29:18.616Z,61.58
2017-04-30T00:30:28.948Z,61.96
2017-04-30T00:31:39.285Z,61.86
2017-04-30T00:32:49.634Z,61.86
2017-04-30T00:33:59.359Z,61.48
2017-04-30T00:35:09.705Z,61.86
2017-04-30T00:36:20.054Z,61.67
2017-04-30T00:37:30.107Z,61.48
2017-04-30T00:38:40.444Z,61.67
2017-04-30T00:39:50.790Z,61.48
2017-04-30T00:41:01.168Z,61.67
2017-04-30T00:42:11.529Z,61.58
2017-04-30T00:43:21.565Z,61.48
2017-04-30T00:44:31.927Z,61.48
2017-04-30T00:45:42.278Z,61.58
2017-04-30T00:46:52.635Z,61.48
2017-04-30T00:48:02.989Z,61.58
2017-04-30T00:49:13.359Z,61.86
2017-04-30T00:50:23.391Z,61.48
2017-04-30T00:51:33.520Z,61.48
2017-04-30T00:52:43.549Z,61.83
2017-04-30T00:53:53.890Z,61.64
2017-04-30T00:55:03.981Z,61.93
2017-04-30T00:56:14.313Z,61.55
2017-04-30T00:57:24.654Z,61.64
2017-04-30T00:58:34.986Z,61.83
2017-04-30T00:59:45.344Z,61.64
2017-04-30T01:00:55.387Z,61.74
2017-04-30T01:02:05.410Z,61.64
2017-04-30T01:03:15.759Z,61.64
2017-04-30T01:04:25.785Z,61.83
2017-04-30T01:05:36.139Z,61.74
2017-04-30T01:06:46.491Z,61.74
2017-04-30T01:07:56.828Z,61.93
2017-04-30T01:09:07.178Z,61.83
2017-04-30T01:10:17.525Z,61.83
2017-04-30T01:11:27.862Z,61.74
2017-04-30T01:12:38.202Z,61.83
2017-04-30T01:13:47.924Z,61.74
2017-04-30T01:14:57.950Z,61.93
2017-04-30T01:16:08.280Z,61.83
2017-04-30T01:17:18.621Z,61.83
2017-04-30T01:18:28.958Z,61.74
2017-04-30T01:19:39.320Z,61.83
2017-04-30T01:20:49.407Z,61.83
2017-04-30T01:21:59.751Z,61.83
2017-04-30T01:23:09.779Z,61.74
2017-04-30T01:24:20.123Z,61.74
2017-04-30T01:25:30.471Z,62.02
2017-04-30T01:26:40.497Z,61.74
2017-04-30T01:27:50.872Z,62.02
2017-04-30T01:29:00.893Z,61.83
2017-04-30T01:30:11.238Z,62.02
2017-04-30T01:31:21.581Z,61.99
2017-04-30T01:32:31.919Z,61.9
2017-04-30T01:33:42.251Z,62.02
2017-04-30T01:34:52.597Z,61.9
2017-04-30T01:36:02.934Z,61.99
2017-04-30T01:37:12.649Z,61.99
2017-04-30T01:38:22.991Z,61.8
2017-04-30T01:39:33.342Z,61.8
2017-04-30T01:40:43.700Z,61.71
2017-04-30T01:41:54.048Z,61.8
2017-04-30T01:43:04.390Z,61.8
2017-04-30T01:44:14.761Z,61.9
2017-04-30T01:45:24.528Z,61.9
2017-04-30T01:46:34.276Z,61.99
2017-04-30T01:47:44.629Z,61.99
2017-04-30T01:48:54.991Z,61.99
2017-04-30T01:50:05.390Z,61.8
2017-04-30T01:51:15.729Z,61.9
2017-04-30T01:52:25.761Z,61.8
2017-04-30T01:53:36.101Z,61.8
2017-04-30T01:54:46.435Z,61.71
2017-04-30T01:55:56.165Z,61.99
2017-04-30T01:57:06.210Z,61.99
2017-04-30T01:58:16.247Z,61.9
2017-04-30T01:59:26.592Z,61.8
2017-04-30T02:00:36.923Z,61.8
2017-04-30T02:01:47.266Z,61.8
2017-04-30T02:02:57.602Z,61.9
2017-04-30T02:04:09.819Z,61.8
2017-04-30T02:05:20.164Z,61.8
2017-04-30T02:06:30.504Z,61.99
2017-04-30T02:07:40.836Z,61.99
2017-04-30T02:08:51.183Z,61.99
2017-04-30T02:10:01.532Z,61.9
2017-04-30T02:11:11.257Z,61.99
2017-04-30T02:12:21.611Z,61.8
2017-04-30T02:13:31.639Z,61.8
2017-04-30T02:14:41.982Z,61.8
2017-04-30T02:15:52.032Z,61.9
2017-04-30T02:17:02.373Z,61.8
2017-04-30T02:18:12.395Z,61.9
2017-04-30T02:19:22.504Z,61.8
2017-04-30T02:20:32.538Z,61.9
2017-04-30T02:21:42.875Z,61.99
2017-04-30T02:22:52.912Z,61.99
2017-04-30T02:24:03.247Z,61.99
2017-04-30T02:25:12.957Z,61.8
2017-04-30T02:26:23.282Z,61.77
2017-04-30T02:27:33.645Z,61.99
2017-04-30T02:28:44.007Z,61.99
2017-04-30T02:29:54.349Z,61.99
2017-04-30T02:31:03.752Z,61.77
2017-04-30T02:32:13.797Z,61.9
2017-04-30T02:33:24.135Z,61.68
2017-04-30T02:34:34.172Z,61.77
2017-04-30T02:35:44.517Z,61.87
2017-04-30T02:36:54.878Z,61.77
2017-04-30T02:38:05.217Z,61.77
2017-04-30T02:39:15.581Z,61.68
2017-04-30T02:40:25.333Z,61.58
2017-04-30T02:41:35.723Z,61.87
2017-04-30T02:42:46.059Z,61.96
2017-04-30T02:43:56.393Z,61.77
2017-04-30T02:45:06.432Z,61.77
2017-04-30T02:46:16.787Z,61.87
2017-04-30T02:47:26.809Z,61.77
2017-04-30T02:48:37.163Z,61.96
2017-04-30T02:49:47.503Z,61.77
2017-04-30T02:50:57.868Z,61.77
2017-04-30T02:52:08.242Z,61.77
2017-04-30T02:53:18.262Z,61.87
2017-04-30T02:54:28.659Z,61.87
2017-04-30T02:55:39.014Z,61.96
2017-04-30T02:56:49.342Z,61.96
2017-04-30T02:57:59.688Z,61.99
2017-04-30T02:59:09.725Z,61.77
2017-04-30T03:00:19.761Z,61.96
2017-04-30T03:01:30.116Z,61.96
2017-04-30T03:32:37.580Z,59.97
2017-04-30T03:33:47.887Z,61.02
2017-04-30T03:34:58.233Z,61.3
2017-04-30T03:36:08.269Z,62.53
2017-04-30T03:37:18.607Z,62.43
2017-04-30T03:38:28.640Z,62.72
2017-04-30T03:39:38.669Z,63.51
2017-04-30T03:40:48.996Z,63.32
2017-04-30T03:41:59.334Z,63.51
2017-04-30T03:43:09.694Z,63.42
2017-04-30T03:44:19.718Z,63.51
2017-04-30T03:45:30.063Z,63.64
2017-04-30T03:46:40.120Z,63.17
2017-04-30T03:47:50.506Z,63.26
2017-04-30T03:49:00.555Z,62.78
2017-04-30T03:50:10.583Z,62.62
2017-04-30T03:51:20.938Z,62.72
2017-04-30T03:52:31.269Z,62.62
2017-04-30T03:53:40.992Z,62.34
2017-04-30T03:54:51.330Z,61.77
2017-04-30T03:56:01.719Z,61.99
2017-04-30T03:57:11.785Z,61.71
2017-04-30T03:58:22.141Z,61.42
2017-04-30T03:59:32.163Z,61.61
2017-04-30T04:00:42.541Z,61.61
2017-04-30T04:01:52.879Z,61.71
2017-04-30T04:03:03.218Z,61.74
2017-04-30T04:04:13.582Z,61.93
2017-04-30T04:05:23.934Z,61.55
2017-04-30T04:06:34.276Z,61.45
2017-04-30T04:07:44.613Z,61.17
2017-04-30T04:08:54.958Z,61.55
2017-04-30T04:10:05.313Z,61.45
2017-04-30T04:11:15.677Z,60.98
2017-04-30T04:12:26.005Z,61.01
2017-04-30T04:13:36.352Z,61.1
2017-04-30T04:14:46.702Z,61.1
2017-04-30T04:15:56.754Z,61.01
2017-04-30T04:17:07.099Z,60.91
2017-04-30T04:18:17.443Z,61.01
2017-04-30T04:19:27.779Z,61.01
2017-04-30T04:20:37.811Z,61.29
2017-04-30T04:21:48.168Z,60.18
2017-04-30T04:22:58.505Z,60.28
2017-04-30T04:24:08.535Z,59.8
2017-04-30T04:25:18.238Z,59.64
2017-04-30T04:26:28.586Z,59.36
2017-04-30T04:27:38.617Z,59.1
2017-04-30T04:28:49.006Z,59.58
2017-04-30T04:29:59.374Z,59.77
2017-04-30T04:31:09.711Z,59.58
2017-04-30T04:32:19.738Z,59.77
2017-04-30T04:33:30.072Z,59.96
2017-04-30T04:34:40.421Z,60.82
2017-04-30T04:35:50.757Z,61.58
2017-04-30T04:37:00.788Z,61.86
2017-04-30T04:38:11.114Z,62.08
2017-04-30T04:39:21.466Z,61.7
2017-04-30T04:40:31.819Z,61.54
2017-04-30T04:41:42.193Z,62.97
2017-04-30T04:42:52.238Z,63.04
2017-04-30T04:44:02.358Z,62.97
2017-04-30T04:45:12.086Z,62.3
2017-04-30T04:46:21.796Z,61
2017-04-30T04:47:32.131Z,59.92
2017-04-30T04:48:42.491Z,59.38
2017-04-30T04:49:52.829Z,59.22
2017-04-30T04:51:03.179Z,59.05
2017-04-30T04:52:13.536Z,58.8
2017-04-30T04:53:23.877Z,58.83
2017-04-30T04:54:33.904Z,58.83
2017-04-30T04:55:43.626Z,58.95
2017-04-30T04:56:53.978Z,59.05
2017-04-30T04:58:04.327Z,59.17
2017-04-30T04:59:14.659Z,58.88
2017-04-30T05:00:25.018Z,58.91
2017-04-30T05:01:35.365Z,58.91
2017-04-30T05:02:45.707Z,58.91
2017-04-30T05:03:55.750Z,58.94
2017-04-30T05:05:06.098Z,58.94
2017-04-30T05:06:16.151Z,59.13
2017-04-30T05:07:26.499Z,58.97
2017-04-30T05:08:36.563Z,59.26
2017-04-30T05:09:46.589Z,59.45
2017-04-30T05:10:56.934Z,59.55
2017-04-30T05:12:07.327Z,59.83
2017-04-30T05:13:17.676Z,59.58
2017-04-30T05:14:28.030Z,60.05
2017-04-30T05:15:38.072Z,59.77
2017-04-30T05:16:48.413Z,59.86
2017-04-30T05:17:58.465Z,60.44
2017-04-30T05:19:08.812Z,60.05
2017-04-30T05:20:18.844Z,59.86
2017-04-30T05:21:28.574Z,60.05
2017-04-30T05:22:38.922Z,60.25
2017-04-30T05:23:49.312Z,59.86
2017-04-30T05:24:59.664Z,60.05
2017-04-30T05:26:10.021Z,60.08
2017-04-30T05:27:20.380Z,60.08
2017-04-30T05:28:30.748Z,60.18
2017-04-30T05:29:41.117Z,60.08
2017-04-30T05:30:51.165Z,60.28
2017-04-30T05:32:01.534Z,60.75
2017-04-30T05:33:11.572Z,60.57
2017-04-30T05:34:21.919Z,60.08
2017-04-30T05:35:32.271Z,60.18
2017-04-30T05:36:42.302Z,60.02
2017-04-30T05:37:52.651Z,60.11
2017-04-30T05:39:03.017Z,60.02
2017-04-30T05:40:13.372Z,60.21
2017-04-30T05:41:23.711Z,60.24
2017-04-30T05:42:34.073Z,60.14
2017-04-30T05:43:44.139Z,59.95
2017-04-30T05:44:54.179Z,59.95
2017-04-30T05:46:04.525Z,60.05
2017-04-30T05:47:14.865Z,60.17
2017-04-30T05:48:24.902Z,60.17
2017-04-30T05:49:34.631Z,60.17
2017-04-30T05:50:44.997Z,60.27
2017-04-30T05:51:55.055Z,60.85
2017-04-30T05:53:04.794Z,61.58
2017-04-30T05:54:15.258Z,62.1
2017-04-30T05:55:25.606Z,63.51
2017-04-30T05:56:35.941Z,63.29
2017-04-30T05:57:46.289Z,63.54
2017-04-30T05:58:56.656Z,63.92
2017-04-30T06:00:07.012Z,63.45
2017-04-30T06:01:17.358Z,63.7
2017-04-30T06:02:27.711Z,63.42
2017-04-30T06:03:38.057Z,63.32
2017-04-30T06:04:48.080Z,63.19
2017-04-30T06:05:58.440Z,63.19
2017-04-30T06:07:08.470Z,63.19
2017-04-30T06:08:18.490Z,63.29
2017-04-30T06:09:28.841Z,62.9
2017-04-30T06:10:39.198Z,62.97
2017-04-30T06:11:49.545Z,63.16
2017-04-30T06:12:59.912Z,62.3
2017-04-30T06:14:10.263Z,62.59
2017-04-30T06:15:20.313Z,62.49
2017-04-30T06:16:30.677Z,62.01
2017-04-30T06:17:41.067Z,62.2
2017-04-30T06:18:51.410Z,61.82
2017-04-30T06:20:01.748Z,62.01
2017-04-30T06:21:12.080Z,61.63
2017-04-30T06:22:22.462Z,61.91
2017-04-30T06:23:32.491Z,61.82
2017-04-30T06:24:42.829Z,61.91
2017-04-30T06:25:53.179Z,61.82
2017-04-30T06:27:03.566Z,61.54
2017-04-30T06:28:13.973Z,61.47
2017-04-30T06:29:23.987Z,61.25
2017-04-30T06:30:34.015Z,61.15
2017-04-30T06:31:44.367Z,61.34
2017-04-30T06:32:54.706Z,61.15
2017-04-30T06:34:04.750Z,61.54
2017-04-30T06:35:15.101Z,61.34
2017-04-30T06:36:25.123Z,61.34
2017-04-30T06:37:35.757Z,61.44
2017-04-30T06:38:46.103Z,61.05
2017-04-30T06:39:56.138Z,61.91
2017-04-30T06:41:06.174Z,61.15
2017-04-30T06:42:16.201Z,61.82
2017-04-30T06:43:26.241Z,61.72
2017-04-30T06:44:36.586Z,61.63
2017-04-30T06:45:46.654Z,61.15
2017-04-30T06:46:57.023Z,61.63
2017-04-30T06:48:07.390Z,61.44
2017-04-30T06:49:17.823Z,61.44
2017-04-30T06:50:28.167Z,61.34
2017-04-30T06:51:38.238Z,61.25
2017-04-30T06:52:47.964Z,61.34
2017-04-30T06:53:58.325Z,61.44
2017-04-30T06:55:08.398Z,61.54
2017-04-30T06:56:18.419Z,61.63
2017-04-30T06:57:28.764Z,61.54
2017-04-30T06:58:39.135Z,61.54
2017-04-30T06:59:49.491Z,61.54
2017-04-30T07:00:59.528Z,61.54
2017-04-30T07:02:09.884Z,61.54
2017-04-30T07:03:19.916Z,61.37
2017-04-30T07:04:30.308Z,61.63
2017-04-30T07:05:40.692Z,61.47
2017-04-30T07:06:51.045Z,61.47
2017-04-30T07:08:01.398Z,61.57
2017-04-30T07:09:11.754Z,61.47
2017-04-30T07:10:21.489Z,61.47
2017-04-30T07:11:31.548Z,61.28
2017-04-30T07:12:41.274Z,61.76
2017-04-30T07:13:51.318Z,61.94
2017-04-30T07:15:01.676Z,60.99
2017-04-30T07:16:12.031Z,60.89
2017-04-30T07:17:22.381Z,60.89
2017-04-30T07:18:32.428Z,60.99
2017-04-30T07:19:42.796Z,61.94
2017-04-30T07:20:52.828Z,61.98
2017-04-30T07:22:03.182Z,60.8
2017-04-30T07:23:13.539Z,60.99
2017-04-30T07:24:23.252Z,61.02
2017-04-30T07:25:33.642Z,61.98
2017-04-30T07:26:43.977Z,61.02
2017-04-30T07:27:54.317Z,60.93
2017-04-30T07:29:04.365Z,60.93
2017-04-30T07:30:14.713Z,61.69
2017-04-30T07:31:25.062Z,61.79
2017-04-30T07:32:35.434Z,61.31
2017-04-30T07:33:45.798Z,61.31
2017-04-30T07:34:55.527Z,61.21
2017-04-30T07:36:05.566Z,60.44
2017-04-30T07:37:15.923Z,60.93
2017-04-30T07:38:26.274Z,61.05
2017-04-30T07:39:36.633Z,61.05
2017-04-30T07:40:46.986Z,60.76
2017-04-30T07:41:57.317Z,60.96
2017-04-30T07:43:07.653Z,60.86
2017-04-30T07:44:17.674Z,60.96
2017-04-30T07:45:27.712Z,60.86
2017-04-30T07:46:38.053Z,61.05
2017-04-30T07:47:48.401Z,61.15
2017-04-30T07:48:58.749Z,61.15
2017-04-30T07:50:08.821Z,61.15
2017-04-30T07:51:18.538Z,61.34
2017-04-30T07:52:28.579Z,60.86
2017-04-30T07:53:38.935Z,60.86
2017-04-30T07:54:48.667Z,60.79
2017-04-30T07:55:59.008Z,60.99
2017-04-30T07:57:09.349Z,60.89
2017-04-30T07:58:19.702Z,60.7
2017-04-30T07:59:29.741Z,60.6
2017-04-30T08:00:40.096Z,60.79
2017-04-30T08:01:50.444Z,61.08
2017-04-30T08:03:00.787Z,60.89
2017-04-30T08:04:11.139Z,61.08
2017-04-30T08:05:21.481Z,60.89
2017-04-30T08:06:31.833Z,61.08
2017-04-30T08:07:42.177Z,60.99
2017-04-30T08:08:52.527Z,60.6
2017-04-30T08:10:02.893Z,60.89
2017-04-30T08:11:13.232Z,60.89
2017-04-30T08:12:23.598Z,60.89
2017-04-30T08:13:33.948Z,60.92
2017-04-30T08:14:44.300Z,61.02
2017-04-30T08:15:54.656Z,60.92
2017-04-30T08:17:05.056Z,60.82
2017-04-30T08:18:15.091Z,60.72
2017-04-30T08:19:25.436Z,60.82
2017-04-30T08:20:35.165Z,60.72
2017-04-30T08:21:45.220Z,60.82
2017-04-30T08:22:55.578Z,60.53
2017-04-30T08:24:05.931Z,60.72
2017-04-30T08:25:15.980Z,60.92
2017-04-30T08:26:26.007Z,60.85
2017-04-30T08:27:36.353Z,60.75
2017-04-30T08:28:46.713Z,61.05
2017-04-30T08:29:56.758Z,60.85
2017-04-30T08:31:07.110Z,60.75
2017-04-30T08:32:17.466Z,60.66
2017-04-30T08:33:27.522Z,60.66
2017-04-30T08:34:37.569Z,61.05
2017-04-30T08:35:47.603Z,60.66
2017-04-30T08:36:57.966Z,60.85
2017-04-30T08:38:08.316Z,60.85
2017-04-30T08:39:18.704Z,61.14
2017-04-30T08:40:29.068Z,61.14
2017-04-30T08:41:39.104Z,61.05
2017-04-30T08:42:49.130Z,61.14
2017-04-30T08:43:59.180Z,61.08
2017-04-30T08:45:08.930Z,60.95
2017-04-30T08:46:19.281Z,61.17
2017-04-30T08:47:29.635Z,61.14
2017-04-30T08:48:39.985Z,61.14
2017-04-30T08:49:50.392Z,61.14
2017-04-30T08:51:00.739Z,61.08
2017-04-30T08:52:11.105Z,61.08
2017-04-30T08:53:21.182Z,60.88
2017-04-30T08:54:31.226Z,60.69
2017-04-30T08:55:41.277Z,60.88
2017-04-30T08:56:51.637Z,60.78
2017-04-30T08:58:01.674Z,60.91
2017-04-30T08:59:12.034Z,60.91
2017-04-30T09:00:22.394Z,60.69
2017-04-30T09:01:32.749Z,60.72
2017-04-30T09:02:42.477Z,61.11
2017-04-30T09:03:52.869Z,61.11
2017-04-30T09:05:03.239Z,61.11
2017-04-30T09:06:13.601Z,60.91
2017-04-30T09:07:23.964Z,60.91
2017-04-30T09:08:34.329Z,60.94
2017-04-30T09:09:44.380Z,60.75
2017-04-30T09:10:54.415Z,60.85
2017-04-30T09:12:04.837Z,60.66
2017-04-30T09:13:15.201Z,60.75
2017-04-30T09:14:25.230Z,60.85
2017-04-30T09:15:35.281Z,60.66
2017-04-30T09:16:45.638Z,60.85
2017-04-30T09:17:55.982Z,60.94
2017-04-30T09:19:06.038Z,60.94
2017-04-30T09:20:16.422Z,60.85
2017-04-30T09:21:26.814Z,60.85
2017-04-30T09:22:37.190Z,60.88
2017-04-30T09:23:47.250Z,60.59
2017-04-30T09:24:57.603Z,60.97
2017-04-30T09:26:08.000Z,60.78
2017-04-30T09:27:18.367Z,61.07
2017-04-30T09:28:28.723Z,61.07
2017-04-30T09:29:38.788Z,60.88
2017-04-30T09:30:49.150Z,60.97
2017-04-30T09:31:59.191Z,60.78
2017-04-30T09:33:09.576Z,60.88
2017-04-30T09:34:19.937Z,60.78
2017-04-30T09:35:30.323Z,60.78
2017-04-30T09:36:40.669Z,60.69
2017-04-30T09:37:51.022Z,60.97
2017-04-30T09:39:01.412Z,60.97
2017-04-30T09:40:11.786Z,60.97
2017-04-30T09:41:22.170Z,60.81
2017-04-30T09:42:32.526Z,61
2017-04-30T09:43:42.595Z,61.55
2017-04-30T09:44:52.960Z,61.65
2017-04-30T09:46:03.326Z,61.16
2017-04-30T09:47:13.685Z,61.26
2017-04-30T09:48:24.063Z,60.88
2017-04-30T09:49:34.438Z,61.19
2017-04-30T09:50:44.793Z,61.1
2017-04-30T09:51:55.151Z,60.72
2017-04-30T09:53:05.538Z,60.52
2017-04-30T09:54:15.927Z,60.72
2017-04-30T09:55:25.987Z,60.55
2017-04-30T09:56:36.352Z,60.17
2017-04-30T09:57:46.713Z,60.55
2017-04-30T09:58:56.779Z,60.97
2017-04-30T10:00:07.165Z,61.07
2017-04-30T10:01:17.549Z,61.8
2017-04-30T10:02:27.909Z,62.35
2017-04-30T10:03:37.967Z,62.26
2017-04-30T10:04:48.330Z,62.06
2017-04-30T10:05:58.713Z,61.04
2017-04-30T10:07:09.083Z,60.58
2017-04-30T10:08:19.478Z,60.61
2017-04-30T10:09:29.841Z,61.65
2017-04-30T10:10:39.630Z,61.71
2017-04-30T10:11:49.993Z,61.52
2017-04-30T10:13:00.386Z,61.13
2017-04-30T10:14:10.450Z,61.65
2017-04-30T10:15:20.818Z,61.74
2017-04-30T10:16:30.890Z,61.07
2017-04-30T10:17:41.258Z,60.52
2017-04-30T10:18:51.625Z,60.32
2017-04-30T10:20:01.682Z,60.16
2017-04-30T10:21:12.031Z,60.28
2017-04-30T10:22:22.405Z,60.1
2017-04-30T10:23:32.773Z,59.8
2017-04-30T10:24:43.148Z,59.8
2017-04-30T10:25:53.545Z,60.28
2017-04-30T10:27:03.936Z,59.9
2017-04-30T10:28:14.031Z,60.31
2017-04-30T10:29:24.384Z,60.31
2017-04-30T10:30:34.757Z,59.55
2017-04-30T10:31:45.171Z,59.38
2017-04-30T10:32:55.546Z,59.67
2017-04-30T10:34:05.910Z,60.73
2017-04-30T10:35:16.282Z,60.51
2017-04-30T10:36:26.325Z,60.51
2017-04-30T10:37:36.689Z,61.38
2017-04-30T10:38:47.071Z,61.32
2017-04-30T10:39:57.454Z,62.28
2017-04-30T10:41:07.825Z,62.54
2017-04-30T10:42:18.172Z,62.7
2017-04-30T10:43:28.235Z,62.22
2017-04-30T10:44:38.632Z,60.87
2017-04-30T10:45:48.984Z,60.8
2017-04-30T10:46:59.358Z,60.55
2017-04-30T10:48:09.734Z,60.55
2017-04-30T10:49:20.120Z,62.06
2017-04-30T10:50:30.169Z,62.35
2017-04-30T10:51:40.560Z,62.22
2017-04-30T10:52:50.961Z,62.41
2017-04-30T10:54:01.355Z,61.74
2017-04-30T10:55:11.727Z,61.74
2017-04-30T10:56:22.086Z,60.58
2017-04-30T10:57:32.449Z,60.61
2017-04-30T10:58:42.872Z,61.48
2017-04-30T10:59:52.620Z,62.32
2017-04-30T11:01:02.987Z,62.38
2017-04-30T11:02:13.082Z,62.64
2017-04-30T11:03:23.466Z,62.83
2017-04-30T11:04:33.521Z,62.8
2017-04-30T11:05:43.872Z,62.51
2017-04-30T11:06:54.266Z,62.61
2017-04-30T11:08:04.646Z,61.77
2017-04-30T11:09:15.066Z,61.68
2017-04-30T11:10:25.438Z,61.77
2017-04-30T11:11:35.781Z,61.68
2017-04-30T11:12:45.876Z,61.68
2017-04-30T11:13:56.248Z,61.68
2017-04-30T11:15:06.605Z,61.68
2017-04-30T11:16:16.989Z,61.58
2017-04-30T11:17:27.049Z,61.97
2017-04-30T11:18:37.389Z,61.32
2017-04-30T11:19:47.782Z,60.94
2017-04-30T11:20:58.167Z,59.62
2017-04-30T11:22:08.218Z,59.39
2017-04-30T11:23:18.594Z,58.1
2017-04-30T11:24:28.900Z,58.03
2017-04-30T11:25:39.281Z,58.25
2017-04-30T11:26:49.720Z,58.45
2017-04-30T11:28:00.110Z,58.25
2017-04-30T11:29:10.497Z,58.28
2017-04-30T11:30:20.564Z,57.89
2017-04-30T11:31:30.951Z,58.31
2017-04-30T11:32:41.364Z,58.21
2017-04-30T11:33:51.765Z,58.24
2017-04-30T11:35:02.139Z,59.21
2017-04-30T11:36:12.209Z,59.18
2017-04-30T11:37:21.946Z,59.01
2017-04-30T11:38:32.057Z,59.59
2017-04-30T11:39:42.429Z,60.11
2017-04-30T11:40:52.490Z,61.08
2017-04-30T11:42:02.581Z,61.25
2017-04-30T11:43:12.661Z,61.67
2017-04-30T11:44:23.034Z,62.34
2017-04-30T11:45:33.324Z,60.8
2017-04-30T11:46:43.063Z,61.22
2017-04-30T11:47:53.427Z,60.99
2017-04-30T11:49:03.507Z,60.61
2017-04-30T11:50:13.240Z,61.31
2017-04-30T11:51:23.607Z,61.57
2017-04-30T11:52:33.964Z,62.05
2017-04-30T11:53:44.315Z,62.22
2017-04-30T11:54:54.072Z,62.48
2017-04-30T11:56:04.480Z,62.57
2017-04-30T11:57:14.499Z,62.83
2017-04-30T11:58:24.859Z,62.45
2017-04-30T11:59:35.233Z,62.25
2017-04-30T12:00:45.592Z,61.87
2017-04-30T12:01:55.962Z,61.1
2017-04-30T12:03:05.718Z,61.32
2017-04-30T12:04:16.074Z,61.32
2017-04-30T12:05:26.447Z,60.74
2017-04-30T12:06:36.827Z,60.19
2017-04-30T12:07:47.202Z,59.93
2017-04-30T12:08:57.581Z,59.38
2017-04-30T12:10:07.961Z,60.44
2017-04-30T12:11:18.050Z,60.89
2017-04-30T12:12:28.091Z,60.41
2017-04-30T12:13:38.463Z,60.03
2017-04-30T12:14:48.512Z,60.41
2017-04-30T12:15:58.547Z,60.99
2017-04-30T12:17:08.912Z,60.68
2017-04-30T12:18:18.956Z,60.89
2017-04-30T12:19:29.306Z,60.51
2017-04-30T12:20:39.349Z,60.71
2017-04-30T12:21:49.750Z,61.64
2017-04-30T12:23:00.101Z,61.9
2017-04-30T12:24:09.821Z,62.06
2017-04-30T12:25:20.236Z,61.99
2017-04-30T12:26:30.593Z,61.87
2017-04-30T12:27:40.639Z,61.19
2017-04-30T12:28:51.017Z,60.93
2017-04-30T12:30:01.385Z,61.22
2017-04-30T12:31:11.499Z,61.03
2017-04-30T12:32:21.871Z,60.93
2017-04-30T12:33:32.248Z,61.1
2017-04-30T12:34:42.879Z,61.32
2017-04-30T12:35:52.938Z,61.19
2017-04-30T12:37:03.299Z,61.87
2017-04-30T12:38:13.658Z,61.87
2017-04-30T12:39:23.760Z,62.06
2017-04-30T12:40:33.530Z,62.22
2017-04-30T12:41:43.589Z,61.38
2017-04-30T12:42:53.647Z,60.8
2017-04-30T12:44:04.033Z,59.32
2017-04-30T12:45:14.429Z,60.77
2017-04-30T12:46:24.812Z,60.38
2017-04-30T12:47:34.854Z,60.96
2017-04-30T12:48:45.290Z,60.68
2017-04-30T12:49:55.672Z,60.77
2017-04-30T12:51:06.055Z,60.35
2017-04-30T12:52:16.080Z,61.16
2017-04-30T12:53:26.451Z,60.38
2017-04-30T12:54:36.888Z,60.48
2017-04-30T12:55:46.939Z,60.31
2017-04-30T12:56:57.311Z,60.03
2017-04-30T12:58:07.374Z,59.93
2017-04-30T12:59:17.724Z,60.31
2017-04-30T13:00:27.759Z,60.41
2017-04-30T13:01:37.819Z,60.51
2017-04-30T13:02:48.179Z,60.41
2017-04-30T13:03:58.239Z,60.99
2017-04-30T13:05:08.636Z,60.51
2017-04-30T13:06:18.991Z,60.51
2017-04-30T13:07:29.046Z,60.31
2017-04-30T13:08:39.109Z,59.38
2017-04-30T13:09:49.473Z,58.64
2017-04-30T13:10:59.872Z,59.53
2017-04-30T13:12:10.244Z,60.67
2017-04-30T13:13:20.297Z,60.25
2017-04-30T13:14:30.662Z,60.28
2017-04-30T13:15:40.709Z,61.12
2017-04-30T13:16:51.066Z,61.09
2017-04-30T13:18:01.424Z,60.96
2017-04-30T13:19:11.799Z,61.47
2017-04-30T13:20:22.173Z,62.02
2017-04-30T13:21:32.540Z,62.38
2017-04-30T13:22:42.894Z,62.35
2017-04-30T13:23:53.262Z,62.54
2017-04-30T13:25:03.313Z,62.25
2017-04-30T13:26:13.664Z,62.22
2017-04-30T13:27:24.025Z,62.22
2017-04-30T13:28:34.390Z,62.6
2017-04-30T13:29:44.444Z,62.6
2017-04-30T13:30:54.178Z,62.6
2017-04-30T13:32:04.572Z,62.7
2017-04-30T13:33:14.931Z,62.8
2017-04-30T13:34:25.001Z,62.03
2017-04-30T13:35:35.378Z,61.74
2017-04-30T13:36:45.763Z,61.83
2017-04-30T13:37:56.109Z,62.22
2017-04-30T13:39:06.390Z,60.97
2017-04-30T13:40:16.751Z,60.42
2017-04-30T13:41:26.171Z,60.1
2017-04-30T13:42:36.599Z,59.8
2017-04-30T13:43:46.650Z,59.25
2017-04-30T13:44:56.994Z,59.35
2017-04-30T13:46:07.041Z,59.48
2017-04-30T13:47:17.463Z,59.38
2017-04-30T13:48:27.523Z,60.25
2017-04-30T13:49:37.889Z,60.64
2017-04-30T13:50:48.257Z,60.51
2017-04-30T13:51:58.656Z,60.06
2017-04-30T13:53:09.014Z,60.54
2017-04-30T13:54:18.765Z,60.51
2017-04-30T13:55:29.161Z,60.54
2017-04-30T13:56:39.229Z,60.25
2017-04-30T13:57:49.584Z,60.93
2017-04-30T13:58:59.642Z,60.71
2017-04-30T14:00:10.243Z,60.31
2017-04-30T14:01:20.612Z,60.64
2017-04-30T14:02:31.028Z,60.16
2017-04-30T14:03:41.385Z,60.28
2017-04-30T14:04:51.441Z,60.73
2017-04-30T14:06:01.835Z,61.09
2017-04-30T14:07:12.230Z,60.71
2017-04-30T14:08:22.301Z,61.09
2017-04-30T14:09:32.693Z,60.51
2017-04-30T14:10:43.119Z,60.25
2017-04-30T14:11:53.175Z,60.35
2017-04-30T14:13:03.210Z,59.99
2017-04-30T14:14:13.575Z,60.38
2017-04-30T14:15:23.638Z,60.54
2017-04-30T14:16:34.076Z,60.38
2017-04-30T14:17:44.430Z,59.41
2017-04-30T14:18:54.830Z,59.53
2017-04-30T14:20:05.197Z,60.38
2017-04-30T14:21:15.567Z,60.76
2017-04-30T14:22:25.957Z,60.73
2017-04-30T14:23:35.996Z,61.19
2017-04-30T14:24:46.408Z,61.19
2017-04-30T14:25:56.461Z,61.09
2017-04-30T14:27:06.835Z,60.99
2017-04-30T14:28:16.575Z,61.28
2017-04-30T14:29:26.628Z,60.8
2017-04-30T14:30:36.717Z,60.41
2017-04-30T14:31:47.098Z,60.54
2017-04-30T14:32:57.148Z,60.8
2017-04-30T14:34:07.584Z,60.51
2017-04-30T14:35:17.955Z,60.41
2017-04-30T14:36:28.345Z,60.35
2017-04-30T14:37:38.726Z,60.51
2017-04-30T14:38:49.107Z,60.61
2017-04-30T14:39:59.551Z,60.96
2017-04-30T14:41:09.942Z,61.16
2017-04-30T14:42:20.308Z,60.86
2017-04-30T14:43:30.678Z,61.25
2017-04-30T14:44:41.037Z,61.25
2017-04-30T14:45:51.415Z,60.77
2017-04-30T14:47:01.795Z,60.38
2017-04-30T14:48:11.842Z,60.99
2017-04-30T14:49:22.205Z,61.44
2017-04-30T14:50:32.259Z,60.96
2017-04-30T14:51:42.604Z,61.61
2017-04-30T14:52:52.347Z,61.41
2017-04-30T14:54:02.716Z,62.09
2017-04-30T14:55:13.147Z,60.93
2017-04-30T14:56:23.209Z,60.64
2017-04-30T14:57:33.607Z,60.68
2017-04-30T14:58:43.956Z,60.83
2017-04-30T14:59:54.305Z,60.64
2017-04-30T15:01:04.671Z,60.68
2017-04-30T15:02:14.706Z,60.93
2017-04-30T15:03:24.753Z,61.22
2017-04-30T15:04:35.109Z,61.13
2017-04-30T15:05:45.490Z,61.9
2017-04-30T15:06:55.882Z,62.25
2017-04-30T15:08:06.250Z,62.25
2017-04-30T15:09:16.617Z,62.06
2017-04-30T15:10:27.012Z,62.25
2017-04-30T15:11:37.063Z,61.68
2017-04-30T15:12:47.683Z,62.15
2017-04-30T15:13:58.050Z,61
2017-04-30T15:15:08.415Z,60.74
2017-04-30T15:16:18.480Z,60.38
2017-04-30T15:17:28.545Z,60.77
2017-04-30T15:18:38.312Z,60.61
2017-04-30T15:19:48.700Z,60.71
2017-04-30T15:20:59.088Z,60.41
2017-04-30T15:22:09.453Z,60.22
2017-04-30T15:23:19.858Z,60.61
2017-04-30T15:24:29.945Z,60.51
2017-04-30T15:25:40.334Z,60.8
2017-04-30T15:26:50.427Z,59.96
2017-04-30T15:28:00.806Z,60.06
2017-04-30T15:29:11.185Z,60.73
2017-04-30T15:30:21.586Z,60.44
2017-04-30T15:31:31.627Z,60.73
2017-04-30T15:32:42.051Z,60.73
2017-04-30T15:33:52.435Z,60.73
2017-04-30T15:35:02.811Z,60.73
2017-04-30T15:36:12.892Z,60.44
2017-04-30T15:37:22.962Z,60.67